sensor_id;sensor_type;location;lat;lon;timestamp;temperature;humidity
65707;SHT31;52423;43.512;5.220;2022-09-09T00:03:48;20.48;71.76
65707;SHT31;52423;43.512;5.220;2022-09-09T00:06:26;20.43;71.17
65707;SHT31;52423;43.512;5.220;2022-09-09T00:09:15;20.43;71.18
65707;SHT31;52423;43.512;5.220;2022-09-09T00:11:52;20.68;71.08
65707;SHT31;52423;43.512;5.220;2022-09-09T00:14:45;20.73;71.11
65707;SHT31;52423;43.512;5.220;2022-09-09T00:17:38;20.68;69.68
65707;SHT31;52423;43.512;5.220;2022-09-09T00:23:12;20.74;71.83
65707;SHT31;52423;43.512;5.220;2022-09-09T00:26:19;20.67;71.47
65707;SHT31;52423;43.512;5.220;2022-09-09T00:28:55;20.53;70.92
65707;SHT31;52423;43.512;5.220;2022-09-09T00:31:32;20.46;71.35
65707;SHT31;52423;43.512;5.220;2022-09-09T00:34:15;20.40;70.45
65707;SHT31;52423;43.512;5.220;2022-09-09T00:36:43;20.36;70.63
65707;SHT31;52423;43.512;5.220;2022-09-09T00:39:34;20.30;70.26
65707;SHT31;52423;43.512;5.220;2022-09-09T00:42:13;20.30;69.67
65707;SHT31;52423;43.512;5.220;2022-09-09T00:47:44;20.24;70.84
65707;SHT31;52423;43.512;5.220;2022-09-09T00:58:30;20.29;70.14
65707;SHT31;52423;43.512;5.220;2022-09-09T01:01:07;20.26;70.74
65707;SHT31;52423;43.512;5.220;2022-09-09T01:03:37;20.22;70.92
65707;SHT31;52423;43.512;5.220;2022-09-09T01:11:52;19.71;70.74
65707;SHT31;52423;43.512;5.220;2022-09-09T01:17:26;19.57;73.12
65707;SHT31;52423;43.512;5.220;2022-09-09T01:20:10;19.54;73.77
65707;SHT31;52423;43.512;5.220;2022-09-09T01:28:17;19.18;73.97
65707;SHT31;52423;43.512;5.220;2022-09-09T01:30:44;19.23;73.61
65707;SHT31;52423;43.512;5.220;2022-09-09T01:33:15;19.27;74.64
65707;SHT31;52423;43.512;5.220;2022-09-09T01:36:06;19.25;74.65
65707;SHT31;52423;43.512;5.220;2022-09-09T01:38:34;19.13;75.07
65707;SHT31;52423;43.512;5.220;2022-09-09T01:41:01;19.02;75.49
65707;SHT31;52423;43.512;5.220;2022-09-09T01:43:27;19.14;73.37
65707;SHT31;52423;43.512;5.220;2022-09-09T01:45:54;19.04;76.03
65707;SHT31;52423;43.512;5.220;2022-09-09T01:48:24;19.07;74.23
65707;SHT31;52423;43.512;5.220;2022-09-09T01:50:51;18.93;76.32
65707;SHT31;52423;43.512;5.220;2022-09-09T01:53:18;18.87;76.48
65707;SHT31;52423;43.512;5.220;2022-09-09T01:59:06;18.87;75.68
65707;SHT31;52423;43.512;5.220;2022-09-09T02:04:35;18.74;75.40
65707;SHT31;52423;43.512;5.220;2022-09-09T02:07:04;18.59;77.06
65707;SHT31;52423;43.512;5.220;2022-09-09T02:09:31;18.46;76.33
65707;SHT31;52423;43.512;5.220;2022-09-09T02:12:18;18.42;77.31
65707;SHT31;52423;43.512;5.220;2022-09-09T02:14:57;18.48;75.80
65707;SHT31;52423;43.512;5.220;2022-09-09T02:17:28;18.62;75.70
65707;SHT31;52423;43.512;5.220;2022-09-09T02:20:05;18.57;75.73
65707;SHT31;52423;43.512;5.220;2022-09-09T02:22:33;18.48;76.51
65707;SHT31;52423;43.512;5.220;2022-09-09T02:25:00;18.41;77.11
65707;SHT31;52423;43.512;5.220;2022-09-09T02:27:27;18.41;77.59
65707;SHT31;52423;43.512;5.220;2022-09-09T02:29:53;18.31;77.53
65707;SHT31;52423;43.512;5.220;2022-09-09T02:32:23;18.28;77.79
65707;SHT31;52423;43.512;5.220;2022-09-09T02:35:00;18.19;77.85
65707;SHT31;52423;43.512;5.220;2022-09-09T02:37:32;18.11;78.53
65707;SHT31;52423;43.512;5.220;2022-09-09T02:40:05;18.16;78.45
65707;SHT31;52423;43.512;5.220;2022-09-09T02:42:32;18.05;78.64
65707;SHT31;52423;43.512;5.220;2022-09-09T02:44:57;18.12;78.71
65707;SHT31;52423;43.512;5.220;2022-09-09T02:50:41;18.14;78.43
65707;SHT31;52423;43.512;5.220;2022-09-09T02:53:15;18.02;78.90
65707;SHT31;52423;43.512;5.220;2022-09-09T02:55:47;18.05;78.64
65707;SHT31;52423;43.512;5.220;2022-09-09T02:58:15;18.05;77.51
65707;SHT31;52423;43.512;5.220;2022-09-09T03:00:43;18.08;78.54
65707;SHT31;52423;43.512;5.220;2022-09-09T03:03:09;18.06;77.57
65707;SHT31;52423;43.512;5.220;2022-09-09T03:05:35;18.24;76.31
65707;SHT31;52423;43.512;5.220;2022-09-09T03:08:03;18.26;77.26
65707;SHT31;52423;43.512;5.220;2022-09-09T03:10:29;18.15;78.03
65707;SHT31;52423;43.512;5.220;2022-09-09T03:12:55;18.18;77.89
65707;SHT31;52423;43.512;5.220;2022-09-09T03:15:21;18.09;78.54
65707;SHT31;52423;43.512;5.220;2022-09-09T03:17:46;18.15;76.98
65707;SHT31;52423;43.512;5.220;2022-09-09T03:20:12;18.16;77.48
65707;SHT31;52423;43.512;5.220;2022-09-09T03:22:38;18.11;77.57
65707;SHT31;52423;43.512;5.220;2022-09-09T03:25:04;18.14;78.01
65707;SHT31;52423;43.512;5.220;2022-09-09T03:27:31;18.05;77.42
65707;SHT31;52423;43.512;5.220;2022-09-09T03:29:56;18.09;77.47
65707;SHT31;52423;43.512;5.220;2022-09-09T03:32:23;18.19;77.19
65707;SHT31;52423;43.512;5.220;2022-09-09T03:34:51;18.12;77.44
65707;SHT31;52423;43.512;5.220;2022-09-09T03:37:18;18.06;78.12
65707;SHT31;52423;43.512;5.220;2022-09-09T03:39:44;18.04;77.47
65707;SHT31;52423;43.512;5.220;2022-09-09T03:42:12;18.12;77.20
65707;SHT31;52423;43.512;5.220;2022-09-09T03:44:40;18.05;77.76
65707;SHT31;52423;43.512;5.220;2022-09-09T03:47:07;18.12;78.11
65707;SHT31;52423;43.512;5.220;2022-09-09T03:49:33;18.29;78.13
65707;SHT31;52423;43.512;5.220;2022-09-09T03:51:58;18.31;78.30
65707;SHT31;52423;43.512;5.220;2022-09-09T03:54:25;18.39;74.86
65707;SHT31;52423;43.512;5.220;2022-09-09T03:56:51;18.45;73.74
65707;SHT31;52423;43.512;5.220;2022-09-09T03:59:17;18.49;73.39
65707;SHT31;52423;43.512;5.220;2022-09-09T04:01:42;18.52;71.09
65707;SHT31;52423;43.512;5.220;2022-09-09T04:04:08;18.59;71.56
65707;SHT31;52423;43.512;5.220;2022-09-09T04:06:35;18.60;71.54
65707;SHT31;52423;43.512;5.220;2022-09-09T04:09:00;18.63;71.00
65707;SHT31;52423;43.512;5.220;2022-09-09T04:11:28;18.73;69.71
65707;SHT31;52423;43.512;5.220;2022-09-09T04:13:54;18.74;71.00
65707;SHT31;52423;43.512;5.220;2022-09-09T04:16:19;18.70;69.37
65707;SHT31;52423;43.512;5.220;2022-09-09T04:18:46;18.67;69.01
65707;SHT31;52423;43.512;5.220;2022-09-09T04:21:11;18.60;68.75
65707;SHT31;52423;43.512;5.220;2022-09-09T04:23:38;18.62;67.86
65707;SHT31;52423;43.512;5.220;2022-09-09T04:26:04;18.69;69.97
65707;SHT31;52423;43.512;5.220;2022-09-09T04:28:32;18.51;70.93
65707;SHT31;52423;43.512;5.220;2022-09-09T04:31:10;18.39;73.03
65707;SHT31;52423;43.512;5.220;2022-09-09T04:33:37;18.42;73.60
65707;SHT31;52423;43.512;5.220;2022-09-09T04:36:04;18.32;73.12
65707;SHT31;52423;43.512;5.220;2022-09-09T04:38:30;18.24;72.85
65707;SHT31;52423;43.512;5.220;2022-09-09T04:40:56;18.26;73.39
65707;SHT31;52423;43.512;5.220;2022-09-09T04:43:22;18.21;73.23
65707;SHT31;52423;43.512;5.220;2022-09-09T04:45:50;18.29;73.25
65707;SHT31;52423;43.512;5.220;2022-09-09T04:48:20;18.18;73.65
65707;SHT31;52423;43.512;5.220;2022-09-09T04:50:55;18.24;71.92
65707;SHT31;52423;43.512;5.220;2022-09-09T04:53:22;18.06;75.34
65707;SHT31;52423;43.512;5.220;2022-09-09T04:55:48;18.04;74.63
65707;SHT31;52423;43.512;5.220;2022-09-09T04:58:14;18.14;71.51
65707;SHT31;52423;43.512;5.220;2022-09-09T05:00:40;18.26;71.02
65707;SHT31;52423;43.512;5.220;2022-09-09T05:03:06;18.34;70.61
65707;SHT31;52423;43.512;5.220;2022-09-09T05:05:34;18.36;70.05
65707;SHT31;52423;43.512;5.220;2022-09-09T05:08:05;18.39;70.35
65707;SHT31;52423;43.512;5.220;2022-09-09T05:10:32;18.45;70.48
65707;SHT31;52423;43.512;5.220;2022-09-09T05:12:57;18.55;70.00
65707;SHT31;52423;43.512;5.220;2022-09-09T05:15:23;18.62;69.92
65707;SHT31;52423;43.512;5.220;2022-09-09T05:17:49;18.65;68.60
65707;SHT31;52423;43.512;5.220;2022-09-09T05:20:15;18.72;69.71
65707;SHT31;52423;43.512;5.220;2022-09-09T05:22:40;18.76;69.20
65707;SHT31;52423;43.512;5.220;2022-09-09T05:25:06;18.80;69.36
65707;SHT31;52423;43.512;5.220;2022-09-09T05:27:36;18.76;70.72
65707;SHT31;52423;43.512;5.220;2022-09-09T05:30:03;18.76;69.76
65707;SHT31;52423;43.512;5.220;2022-09-09T05:32:30;18.72;69.13
65707;SHT31;52423;43.512;5.220;2022-09-09T05:34:59;18.83;69.44
65707;SHT31;52423;43.512;5.220;2022-09-09T05:37:24;18.73;70.91
65707;SHT31;52423;43.512;5.220;2022-09-09T05:39:50;18.60;71.47
65707;SHT31;52423;43.512;5.220;2022-09-09T05:42:16;18.59;72.28
65707;SHT31;52423;43.512;5.220;2022-09-09T05:44:42;18.48;72.76
65707;SHT31;52423;43.512;5.220;2022-09-09T05:47:08;18.53;72.05
65707;SHT31;52423;43.512;5.220;2022-09-09T05:49:34;18.52;72.52
65707;SHT31;52423;43.512;5.220;2022-09-09T05:52:00;18.59;72.44
65707;SHT31;52423;43.512;5.220;2022-09-09T05:54:26;18.66;71.36
65707;SHT31;52423;43.512;5.220;2022-09-09T05:56:51;18.69;71.42
65707;SHT31;52423;43.512;5.220;2022-09-09T05:59:19;18.82;71.82
65707;SHT31;52423;43.512;5.220;2022-09-09T06:01:44;18.92;72.28
65707;SHT31;52423;43.512;5.220;2022-09-09T06:04:10;18.96;71.87
65707;SHT31;52423;43.512;5.220;2022-09-09T06:06:37;19.03;72.01
65707;SHT31;52423;43.512;5.220;2022-09-09T06:09:05;19.11;71.83
65707;SHT31;52423;43.512;5.220;2022-09-09T06:11:39;19.14;71.20
65707;SHT31;52423;43.512;5.220;2022-09-09T06:14:05;19.17;72.33
65707;SHT31;52423;43.512;5.220;2022-09-09T06:16:32;19.18;71.18
65707;SHT31;52423;43.512;5.220;2022-09-09T06:18:58;19.30;69.17
65707;SHT31;52423;43.512;5.220;2022-09-09T06:21:29;19.36;69.53
65707;SHT31;52423;43.512;5.220;2022-09-09T06:23:56;19.45;69.18
65707;SHT31;52423;43.512;5.220;2022-09-09T06:26:33;19.64;68.62
65707;SHT31;52423;43.512;5.220;2022-09-09T06:28:59;19.75;68.15
65707;SHT31;52423;43.512;5.220;2022-09-09T06:31:27;19.92;68.00
65707;SHT31;52423;43.512;5.220;2022-09-09T06:33:56;20.06;67.63
65707;SHT31;52423;43.512;5.220;2022-09-09T06:36:25;20.17;66.74
65707;SHT31;52423;43.512;5.220;2022-09-09T06:38:50;20.14;67.92
65707;SHT31;52423;43.512;5.220;2022-09-09T06:41:18;20.08;68.32
65707;SHT31;52423;43.512;5.220;2022-09-09T06:43:45;20.00;69.28
65707;SHT31;52423;43.512;5.220;2022-09-09T06:46:16;20.00;68.99
65707;SHT31;52423;43.512;5.220;2022-09-09T06:48:43;20.05;69.20
65707;SHT31;52423;43.512;5.220;2022-09-09T06:51:15;20.09;68.44
65707;SHT31;52423;43.512;5.220;2022-09-09T06:53:42;20.30;68.63
65707;SHT31;52423;43.512;5.220;2022-09-09T06:58:40;20.51;66.58
65707;SHT31;52423;43.512;5.220;2022-09-09T07:01:14;20.68;65.68
65707;SHT31;52423;43.512;5.220;2022-09-09T07:03:41;20.85;65.69
65707;SHT31;52423;43.512;5.220;2022-09-09T07:06:09;21.09;65.99
65707;SHT31;52423;43.512;5.220;2022-09-09T07:08:40;21.31;64.88
65707;SHT31;52423;43.512;5.220;2022-09-09T07:11:07;21.56;59.07
65707;SHT31;52423;43.512;5.220;2022-09-09T07:13:34;21.59;61.03
65707;SHT31;52423;43.512;5.220;2022-09-09T07:16:10;21.64;62.19
65707;SHT31;52423;43.512;5.220;2022-09-09T07:18:36;21.60;62.72
65707;SHT31;52423;43.512;5.220;2022-09-09T07:21:03;21.63;61.89
65707;SHT31;52423;43.512;5.220;2022-09-09T07:23:30;21.63;62.04
65707;SHT31;52423;43.512;5.220;2022-09-09T07:25:57;21.64;62.03
65707;SHT31;52423;43.512;5.220;2022-09-09T07:28:23;21.63;61.43
65707;SHT31;52423;43.512;5.220;2022-09-09T07:30:55;21.66;62.56
65707;SHT31;52423;43.512;5.220;2022-09-09T07:33:22;21.67;61.98
65707;SHT31;52423;43.512;5.220;2022-09-09T07:35:48;21.64;62.57
65707;SHT31;52423;43.512;5.220;2022-09-09T07:38:14;21.82;64.19
65707;SHT31;52423;43.512;5.220;2022-09-09T07:40:40;22.17;63.15
65707;SHT31;52423;43.512;5.220;2022-09-09T07:43:06;22.18;61.17
65707;SHT31;52423;43.512;5.220;2022-09-09T07:45:33;22.37;60.59
65707;SHT31;52423;43.512;5.220;2022-09-09T07:48:00;22.58;55.77
65707;SHT31;52423;43.512;5.220;2022-09-09T07:50:26;22.72;57.87
65707;SHT31;52423;43.512;5.220;2022-09-09T07:52:52;22.73;58.06
65707;SHT31;52423;43.512;5.220;2022-09-09T07:55:22;22.69;56.88
65707;SHT31;52423;43.512;5.220;2022-09-09T07:57:51;22.66;55.43
65707;SHT31;52423;43.512;5.220;2022-09-09T08:00:17;22.62;56.21
65707;SHT31;52423;43.512;5.220;2022-09-09T08:02:44;22.59;56.00
65707;SHT31;52423;43.512;5.220;2022-09-09T08:05:09;22.56;53.57
65707;SHT31;52423;43.512;5.220;2022-09-09T08:07:35;22.71;53.76
65707;SHT31;52423;43.512;5.220;2022-09-09T08:10:02;22.62;56.32
65707;SHT31;52423;43.512;5.220;2022-09-09T08:12:28;22.55;57.38
65707;SHT31;52423;43.512;5.220;2022-09-09T08:14:53;22.51;57.54
65707;SHT31;52423;43.512;5.220;2022-09-09T08:17:19;22.49;56.12
65707;SHT31;52423;43.512;5.220;2022-09-09T08:19:45;22.56;57.22
65707;SHT31;52423;43.512;5.220;2022-09-09T08:22:10;22.61;56.01
65707;SHT31;52423;43.512;5.220;2022-09-09T08:24:36;22.58;57.67
65707;SHT31;52423;43.512;5.220;2022-09-09T08:27:02;22.52;57.38
65707;SHT31;52423;43.512;5.220;2022-09-09T08:29:27;22.45;59.76
65707;SHT31;52423;43.512;5.220;2022-09-09T08:31:56;22.48;57.23
65707;SHT31;52423;43.512;5.220;2022-09-09T08:34:24;22.42;57.87
65707;SHT31;52423;43.512;5.220;2022-09-09T08:36:52;22.34;59.63
65707;SHT31;52423;43.512;5.220;2022-09-09T08:39:19;22.38;59.08
65707;SHT31;52423;43.512;5.220;2022-09-09T08:42:02;22.38;59.97
65707;SHT31;52423;43.512;5.220;2022-09-09T08:50:37;22.81;56.92
65707;SHT31;52423;43.512;5.220;2022-09-09T08:53:17;23.03;55.13
65707;SHT31;52423;43.512;5.220;2022-09-09T08:55:50;23.24;55.23
65707;SHT31;52423;43.512;5.220;2022-09-09T08:58:19;23.20;57.17
65707;SHT31;52423;43.512;5.220;2022-09-09T09:03:56;23.68;53.79
65707;SHT31;52423;43.512;5.220;2022-09-09T09:09:20;23.74;53.98
65707;SHT31;52423;43.512;5.220;2022-09-09T09:11:52;23.65;53.40
65707;SHT31;52423;43.512;5.220;2022-09-09T09:14:24;23.58;51.03
65707;SHT31;52423;43.512;5.220;2022-09-09T09:19:19;23.54;49.62
65707;SHT31;52423;43.512;5.220;2022-09-09T09:22:06;23.58;52.32
65707;SHT31;52423;43.512;5.220;2022-09-09T09:24:58;23.64;48.69
65707;SHT31;52423;43.512;5.220;2022-09-09T09:27:44;23.77;50.02
65707;SHT31;52423;43.512;5.220;2022-09-09T09:30:21;24.29;50.87
65707;SHT31;52423;43.512;5.220;2022-09-09T09:33:11;24.25;46.89
65707;SHT31;52423;43.512;5.220;2022-09-09T09:35:37;24.56;47.60
65707;SHT31;52423;43.512;5.220;2022-09-09T09:38:16;24.77;47.23
65707;SHT31;52423;43.512;5.220;2022-09-09T09:40:53;25.07;48.37
65707;SHT31;52423;43.512;5.220;2022-09-09T09:43:29;25.00;44.24
65707;SHT31;52423;43.512;5.220;2022-09-09T09:45:55;25.21;48.17
65707;SHT31;52423;43.512;5.220;2022-09-09T09:48:24;25.30;45.60
65707;SHT31;52423;43.512;5.220;2022-09-09T09:51:09;25.13;45.83
65707;SHT31;52423;43.512;5.220;2022-09-09T09:53:36;25.44;45.90
65707;SHT31;52423;43.512;5.220;2022-09-09T09:56:06;25.15;48.16
65707;SHT31;52423;43.512;5.220;2022-09-09T10:04:16;24.98;44.20
65707;SHT31;52423;43.512;5.220;2022-09-09T10:06:44;24.95;46.67
65707;SHT31;52423;43.512;5.220;2022-09-09T10:09:28;24.88;45.81
65707;SHT31;52423;43.512;5.220;2022-09-09T10:15:10;24.69;45.74
65707;SHT31;52423;43.512;5.220;2022-09-09T10:20:39;24.73;47.61
65707;SHT31;52423;43.512;5.220;2022-09-09T10:26:14;24.57;45.83
65707;SHT31;52423;43.512;5.220;2022-09-09T10:40:34;25.10;45.21
65707;SHT31;52423;43.512;5.220;2022-09-09T10:56:42;25.06;42.68
65707;SHT31;52423;43.512;5.220;2022-09-09T10:59:18;25.03;44.82
65707;SHT31;52423;43.512;5.220;2022-09-09T11:01:51;24.93;44.32
65707;SHT31;52423;43.512;5.220;2022-09-09T11:04:22;24.86;43.96
65707;SHT31;52423;43.512;5.220;2022-09-09T11:06:54;24.72;44.40
65707;SHT31;52423;43.512;5.220;2022-09-09T11:09:26;24.70;44.69
65707;SHT31;52423;43.512;5.220;2022-09-09T11:11:55;24.70;44.09
65707;SHT31;52423;43.512;5.220;2022-09-09T11:14:34;24.74;43.74
65707;SHT31;52423;43.512;5.220;2022-09-09T11:17:24;25.20;44.05
65707;SHT31;52423;43.512;5.220;2022-09-09T11:19:52;25.51;42.19
65707;SHT31;52423;43.512;5.220;2022-09-09T11:24:58;25.49;43.41
65707;SHT31;52423;43.512;5.220;2022-09-09T11:27:29;25.44;42.63
65707;SHT31;52423;43.512;5.220;2022-09-09T11:35:48;25.81;41.11
65707;SHT31;52423;43.512;5.220;2022-09-09T11:40:45;25.97;41.69
65707;SHT31;52423;43.512;5.220;2022-09-09T11:43:32;26.22;42.67
65707;SHT31;52423;43.512;5.220;2022-09-09T11:46:01;26.51;39.72
65707;SHT31;52423;43.512;5.220;2022-09-09T11:48:42;26.57;39.48
65707;SHT31;52423;43.512;5.220;2022-09-09T11:51:13;26.71;40.98
65707;SHT31;52423;43.512;5.220;2022-09-09T11:53:58;26.91;39.84
65707;SHT31;52423;43.512;5.220;2022-09-09T11:56:31;26.91;39.59
65707;SHT31;52423;43.512;5.220;2022-09-09T12:01:42;27.39;37.96
65707;SHT31;52423;43.512;5.220;2022-09-09T12:06:46;27.54;37.69
65707;SHT31;52423;43.512;5.220;2022-09-09T12:09:33;27.59;34.61
65707;SHT31;52423;43.512;5.220;2022-09-09T12:12:23;27.57;36.43
65707;SHT31;52423;43.512;5.220;2022-09-09T12:18:14;27.45;37.54
65707;SHT31;52423;43.512;5.220;2022-09-09T12:20:57;27.56;36.95
65707;SHT31;52423;43.512;5.220;2022-09-09T12:34:29;27.62;38.19
65707;SHT31;52423;43.512;5.220;2022-09-09T12:37:03;27.54;37.50
65707;SHT31;52423;43.512;5.220;2022-09-09T12:39:40;27.76;39.22
65707;SHT31;52423;43.512;5.220;2022-09-09T12:42:21;27.71;36.97
65707;SHT31;52423;43.512;5.220;2022-09-09T12:44:58;27.89;37.48
65707;SHT31;52423;43.512;5.220;2022-09-09T12:47:40;28.01;37.31
65707;SHT31;52423;43.512;5.220;2022-09-09T12:50:25;27.98;36.61
65707;SHT31;52423;43.512;5.220;2022-09-09T12:52:54;27.87;37.26
65707;SHT31;52423;43.512;5.220;2022-09-09T12:55:48;28.00;37.45
65707;SHT31;52423;43.512;5.220;2022-09-09T12:58:17;28.03;36.15
65707;SHT31;52423;43.512;5.220;2022-09-09T13:00:51;27.94;36.16
65707;SHT31;52423;43.512;5.220;2022-09-09T13:03:19;27.83;38.03
65707;SHT31;52423;43.512;5.220;2022-09-09T13:05:46;27.71;38.58
65707;SHT31;52423;43.512;5.220;2022-09-09T13:08:13;27.59;38.44
65707;SHT31;52423;43.512;5.220;2022-09-09T13:10:48;27.76;38.23
65707;SHT31;52423;43.512;5.220;2022-09-09T13:13:23;27.76;39.27
65707;SHT31;52423;43.512;5.220;2022-09-09T13:15:53;27.80;38.60
65707;SHT31;52423;43.512;5.220;2022-09-09T13:18:25;27.83;39.23
65707;SHT31;52423;43.512;5.220;2022-09-09T13:20:52;27.93;39.24
65707;SHT31;52423;43.512;5.220;2022-09-09T13:23:20;27.52;39.67
65707;SHT31;52423;43.512;5.220;2022-09-09T13:25:57;27.74;39.33
65707;SHT31;52423;43.512;5.220;2022-09-09T13:28:26;28.01;39.65
65707;SHT31;52423;43.512;5.220;2022-09-09T13:30:57;27.91;40.27
65707;SHT31;52423;43.512;5.220;2022-09-09T13:33:30;27.52;39.21
65707;SHT31;52423;43.512;5.220;2022-09-09T13:36:05;27.42;40.39
65707;SHT31;52423;43.512;5.220;2022-09-09T13:38:53;27.38;39.94
65707;SHT31;52423;43.512;5.220;2022-09-09T13:41:34;27.50;40.48
65707;SHT31;52423;43.512;5.220;2022-09-09T13:44:01;27.52;38.71
65707;SHT31;52423;43.512;5.220;2022-09-09T13:46:39;27.56;39.54
65707;SHT31;52423;43.512;5.220;2022-09-09T13:51:38;27.74;39.64
65707;SHT31;52423;43.512;5.220;2022-09-09T13:54:09;27.80;39.12
65707;SHT31;52423;43.512;5.220;2022-09-09T13:56:36;27.79;39.83
65707;SHT31;52423;43.512;5.220;2022-09-09T13:59:04;27.83;40.00
65707;SHT31;52423;43.512;5.220;2022-09-09T14:01:29;28.17;38.09
65707;SHT31;52423;43.512;5.220;2022-09-09T14:03:56;28.15;39.19
65707;SHT31;52423;43.512;5.220;2022-09-09T14:06:22;28.01;39.02
65707;SHT31;52423;43.512;5.220;2022-09-09T14:08:51;27.91;39.67
65707;SHT31;52423;43.512;5.220;2022-09-09T14:11:18;28.01;39.60
65707;SHT31;52423;43.512;5.220;2022-09-09T14:13:44;28.05;40.15
65707;SHT31;52423;43.512;5.220;2022-09-09T14:16:09;27.90;39.28
65707;SHT31;52423;43.512;5.220;2022-09-09T14:18:35;27.63;39.73
65707;SHT31;52423;43.512;5.220;2022-09-09T14:21:01;27.93;40.07
65707;SHT31;52423;43.512;5.220;2022-09-09T14:23:28;28.01;38.71
65707;SHT31;52423;43.512;5.220;2022-09-09T14:25:54;27.79;38.89
65707;SHT31;52423;43.512;5.220;2022-09-09T14:28:20;27.70;39.37
65707;SHT31;52423;43.512;5.220;2022-09-09T14:30:45;27.84;39.10
65707;SHT31;52423;43.512;5.220;2022-09-09T14:33:14;27.87;40.23
65707;SHT31;52423;43.512;5.220;2022-09-09T14:35:39;27.80;39.89
65707;SHT31;52423;43.512;5.220;2022-09-09T14:38:07;27.71;40.12
65707;SHT31;52423;43.512;5.220;2022-09-09T14:40:35;27.64;40.44
65707;SHT31;52423;43.512;5.220;2022-09-09T14:43:01;27.77;38.61
65707;SHT31;52423;43.512;5.220;2022-09-09T14:45:27;27.69;40.09
65707;SHT31;52423;43.512;5.220;2022-09-09T14:47:53;27.67;39.16
65707;SHT31;52423;43.512;5.220;2022-09-09T14:50:20;27.64;39.61
65707;SHT31;52423;43.512;5.220;2022-09-09T14:52:46;27.60;40.09
65707;SHT31;52423;43.512;5.220;2022-09-09T14:55:13;27.43;41.06
65707;SHT31;52423;43.512;5.220;2022-09-09T14:57:38;27.22;40.55
65707;SHT31;52423;43.512;5.220;2022-09-09T15:00:07;27.13;40.85
65707;SHT31;52423;43.512;5.220;2022-09-09T15:02:33;27.21;41.87
65707;SHT31;52423;43.512;5.220;2022-09-09T15:04:59;27.26;40.13
65707;SHT31;52423;43.512;5.220;2022-09-09T15:07:25;27.05;41.40
65707;SHT31;52423;43.512;5.220;2022-09-09T15:09:52;27.08;41.20
65707;SHT31;52423;43.512;5.220;2022-09-09T15:12:18;27.01;41.91
65707;SHT31;52423;43.512;5.220;2022-09-09T15:14:45;26.96;42.49
65707;SHT31;52423;43.512;5.220;2022-09-09T15:17:10;27.08;42.87
65707;SHT31;52423;43.512;5.220;2022-09-09T15:19:36;26.98;41.35
65707;SHT31;52423;43.512;5.220;2022-09-09T15:22:04;26.95;41.81
65707;SHT31;52423;43.512;5.220;2022-09-09T15:24:33;26.90;43.35
65707;SHT31;52423;43.512;5.220;2022-09-09T15:27:00;26.84;41.29
65707;SHT31;52423;43.512;5.220;2022-09-09T15:29:26;26.85;41.77
65707;SHT31;52423;43.512;5.220;2022-09-09T15:31:53;26.75;43.19
65707;SHT31;52423;43.512;5.220;2022-09-09T15:34:19;26.67;43.52
65707;SHT31;52423;43.512;5.220;2022-09-09T15:36:45;26.71;44.23
65707;SHT31;52423;43.512;5.220;2022-09-09T15:39:16;26.68;43.39
65707;SHT31;52423;43.512;5.220;2022-09-09T15:41:45;26.60;44.62
65707;SHT31;52423;43.512;5.220;2022-09-09T15:44:12;26.64;42.88
65707;SHT31;52423;43.512;5.220;2022-09-09T15:46:40;26.55;43.10
65707;SHT31;52423;43.512;5.220;2022-09-09T15:49:17;26.55;44.20
65707;SHT31;52423;43.512;5.220;2022-09-09T15:51:46;26.53;45.56
65707;SHT31;52423;43.512;5.220;2022-09-09T15:54:15;26.47;46.72
65707;SHT31;52423;43.512;5.220;2022-09-09T15:56:42;26.50;46.63
65707;SHT31;52423;43.512;5.220;2022-09-09T15:59:08;26.44;46.21
65707;SHT31;52423;43.512;5.220;2022-09-09T16:01:34;26.37;46.74
65707;SHT31;52423;43.512;5.220;2022-09-09T16:04:00;26.32;45.71
65707;SHT31;52423;43.512;5.220;2022-09-09T16:06:28;26.26;46.15
65707;SHT31;52423;43.512;5.220;2022-09-09T16:08:55;26.16;46.20
65707;SHT31;52423;43.512;5.220;2022-09-09T16:11:39;26.13;46.67
65707;SHT31;52423;43.512;5.220;2022-09-09T16:14:05;26.06;47.54
65707;SHT31;52423;43.512;5.220;2022-09-09T16:16:31;26.10;47.23
65707;SHT31;52423;43.512;5.220;2022-09-09T16:18:59;26.03;46.14
65707;SHT31;52423;43.512;5.220;2022-09-09T16:21:31;25.96;46.46
65707;SHT31;52423;43.512;5.220;2022-09-09T16:23:59;25.89;46.98
65707;SHT31;52423;43.512;5.220;2022-09-09T16:26:25;25.81;47.12
65707;SHT31;52423;43.512;5.220;2022-09-09T16:28:51;25.75;48.23
65707;SHT31;52423;43.512;5.220;2022-09-09T16:31:20;25.75;48.51
65707;SHT31;52423;43.512;5.220;2022-09-09T16:33:47;25.69;47.94
65707;SHT31;52423;43.512;5.220;2022-09-09T16:36:26;25.69;49.08
65707;SHT31;52423;43.512;5.220;2022-09-09T16:38:57;25.72;48.68
65707;SHT31;52423;43.512;5.220;2022-09-09T16:41:25;25.71;49.33
65707;SHT31;52423;43.512;5.220;2022-09-09T16:43:55;25.65;50.14
65707;SHT31;52423;43.512;5.220;2022-09-09T16:46:21;25.59;49.75
65707;SHT31;52423;43.512;5.220;2022-09-09T16:48:49;25.54;50.13
65707;SHT31;52423;43.512;5.220;2022-09-09T16:51:18;25.52;50.55
65707;SHT31;52423;43.512;5.220;2022-09-09T16:53:44;25.51;51.23
65707;SHT31;52423;43.512;5.220;2022-09-09T16:56:13;25.54;50.69
65707;SHT31;52423;43.512;5.220;2022-09-09T16:58:39;25.34;51.67
65707;SHT31;52423;43.512;5.220;2022-09-09T17:01:05;25.21;51.96
65707;SHT31;52423;43.512;5.220;2022-09-09T17:03:31;25.24;52.54
65707;SHT31;52423;43.512;5.220;2022-09-09T17:05:58;25.14;53.69
65707;SHT31;52423;43.512;5.220;2022-09-09T17:08:28;25.15;54.59
65707;SHT31;52423;43.512;5.220;2022-09-09T17:10:55;24.98;54.88
65707;SHT31;52423;43.512;5.220;2022-09-09T17:13:20;24.94;55.52
65707;SHT31;52423;43.512;5.220;2022-09-09T17:15:46;24.83;55.75
65707;SHT31;52423;43.512;5.220;2022-09-09T17:18:12;24.80;55.48
65707;SHT31;52423;43.512;5.220;2022-09-09T17:20:39;24.86;55.32
65707;SHT31;52423;43.512;5.220;2022-09-09T17:23:07;24.73;56.14
65707;SHT31;52423;43.512;5.220;2022-09-09T17:25:33;24.74;56.32
65707;SHT31;52423;43.512;5.220;2022-09-09T17:27:59;24.60;57.32
65707;SHT31;52423;43.512;5.220;2022-09-09T17:30:26;24.59;57.24
65707;SHT31;52423;43.512;5.220;2022-09-09T17:32:52;24.60;56.93
65707;SHT31;52423;43.512;5.220;2022-09-09T17:35:18;24.49;56.19
65707;SHT31;52423;43.512;5.220;2022-09-09T17:37:44;24.46;56.48
65707;SHT31;52423;43.512;5.220;2022-09-09T17:40:10;24.45;56.74
65707;SHT31;52423;43.512;5.220;2022-09-09T17:42:36;24.30;56.97
65707;SHT31;52423;43.512;5.220;2022-09-09T17:45:02;24.33;56.46
65707;SHT31;52423;43.512;5.220;2022-09-09T17:47:28;24.22;57.56
65707;SHT31;52423;43.512;5.220;2022-09-09T17:49:56;24.16;57.41
65707;SHT31;52423;43.512;5.220;2022-09-09T17:52:21;24.21;58.61
65707;SHT31;52423;43.512;5.220;2022-09-09T17:54:48;24.12;59.18
65707;SHT31;52423;43.512;5.220;2022-09-09T17:57:15;24.14;59.34